sensor_id;sensor_type;location;lat;lon;timestamp;P1;durP1;ratioP1;P2;durP2;ratioP2
14394;SDS011;7282;49.204;10.652;2023-03-14T00:00:16;1.60;;;1.50;;
14394;SDS011;7282;49.204;10.652;2023-03-14T00:02:43;1.70;;;1.30;;
14394;SDS011;7282;49.204;10.652;2023-03-14T00:05:10;1.60;;;1.50;;
14394;SDS011;7282;49.204;10.652;2023-03-14T00:07:37;1.70;;;1.40;;
14394;SDS011;7282;49.204;10.652;2023-03-14T00:10:09;1.50;;;1.40;;
14394;SDS011;7282;49.204;10.652;2023-03-14T00:12:36;1.50;;;1.40;;
14394;SDS011;7282;49.204;10.652;2023-03-14T00:15:03;3.00;;;1.60;;
14394;SDS011;7282;49.204;10.652;2023-03-14T00:17:30;2.97;;;1.50;;
14394;SDS011;7282;49.204;10.652;2023-03-14T00:19:57;3.30;;;1.40;;
14394;SDS011;7282;49.204;10.652;2023-03-14T00:22:26;1.60;;;1.50;;
14394;SDS011;7282;49.204;10.652;2023-03-14T00:24:53;3.43;;;1.30;;
14394;SDS011;7282;49.204;10.652;2023-03-14T00:27:19;1.47;;;1.20;;
14394;SDS011;7282;49.204;10.652;2023-03-14T00:29:46;1.60;;;1.47;;
14394;SDS011;7282;49.204;10.652;2023-03-14T00:32:13;1.40;;;1.30;;
14394;SDS011;7282;49.204;10.652;2023-03-14T00:34:40;2.67;;;1.30;;
14394;SDS011;7282;49.204;10.652;2023-03-14T00:37:06;1.73;;;1.00;;
14394;SDS011;7282;49.204;10.652;2023-03-14T00:39:33;0.93;;;0.93;;
14394;SDS011;7282;49.204;10.652;2023-03-14T00:42:00;0.80;;;0.80;;
14394;SDS011;7282;49.204;10.652;2023-03-14T00:44:26;1.07;;;0.93;;
14394;SDS011;7282;49.204;10.652;2023-03-14T00:46:53;1.00;;;1.00;;
14394;SDS011;7282;49.204;10.652;2023-03-14T00:49:20;0.93;;;0.80;;
14394;SDS011;7282;49.204;10.652;2023-03-14T00:51:47;1.03;;;0.90;;
14394;SDS011;7282;49.204;10.652;2023-03-14T00:54:13;1.43;;;1.03;;
14394;SDS011;7282;49.204;10.652;2023-03-14T00:56:40;0.90;;;0.90;;
14394;SDS011;7282;49.204;10.652;2023-03-14T00:59:07;1.20;;;0.90;;
14394;SDS011;7282;49.204;10.652;2023-03-14T01:01:33;1.30;;;0.93;;
14394;SDS011;7282;49.204;10.652;2023-03-14T01:04:00;1.20;;;1.10;;
14394;SDS011;7282;49.204;10.652;2023-03-14T01:06:28;1.00;;;1.00;;
14394;SDS011;7282;49.204;10.652;2023-03-14T01:08:55;1.23;;;0.80;;
14394;SDS011;7282;49.204;10.652;2023-03-14T01:11:23;0.93;;;0.93;;
14394;SDS011;7282;49.204;10.652;2023-03-14T01:13:51;0.90;;;0.90;;
14394;SDS011;7282;49.204;10.652;2023-03-14T01:16:19;1.67;;;1.00;;
14394;SDS011;7282;49.204;10.652;2023-03-14T01:18:46;1.20;;;1.10;;
14394;SDS011;7282;49.204;10.652;2023-03-14T01:21:20;1.30;;;1.17;;
14394;SDS011;7282;49.204;10.652;2023-03-14T01:23:48;0.97;;;0.87;;
14394;SDS011;7282;49.204;10.652;2023-03-14T01:26:16;1.10;;;1.00;;
14394;SDS011;7282;49.204;10.652;2023-03-14T01:28:45;1.10;;;1.10;;
14394;SDS011;7282;49.204;10.652;2023-03-14T01:31:12;1.90;;;1.03;;
14394;SDS011;7282;49.204;10.652;2023-03-14T01:33:39;1.20;;;1.13;;
14394;SDS011;7282;49.204;10.652;2023-03-14T01:36:06;1.60;;;1.20;;
14394;SDS011;7282;49.204;10.652;2023-03-14T01:38:34;1.10;;;1.03;;
14394;SDS011;7282;49.204;10.652;2023-03-14T01:41:01;1.30;;;1.20;;
14394;SDS011;7282;49.204;10.652;2023-03-14T01:43:28;1.63;;;1.13;;
14394;SDS011;7282;49.204;10.652;2023-03-14T01:48:42;1.07;;;1.00;;
14394;SDS011;7282;49.204;10.652;2023-03-14T01:51:11;1.73;;;1.20;;
14394;SDS011;7282;49.204;10.652;2023-03-14T01:53:37;1.17;;;1.07;;
14394;SDS011;7282;49.204;10.652;2023-03-14T01:56:05;1.30;;;1.20;;
14394;SDS011;7282;49.204;10.652;2023-03-14T01:58:32;1.40;;;1.03;;
14394;SDS011;7282;49.204;10.652;2023-03-14T02:01:00;1.10;;;1.10;;
14394;SDS011;7282;49.204;10.652;2023-03-14T02:03:28;1.33;;;1.23;;
14394;SDS011;7282;49.204;10.652;2023-03-14T02:05:55;1.20;;;1.13;;
14394;SDS011;7282;49.204;10.652;2023-03-14T02:08:24;1.17;;;1.10;;
14394;SDS011;7282;49.204;10.652;2023-03-14T02:10:51;1.10;;;1.00;;
14394;SDS011;7282;49.204;10.652;2023-03-14T02:13:18;0.97;;;0.97;;
14394;SDS011;7282;49.204;10.652;2023-03-14T02:15:50;1.20;;;1.20;;
14394;SDS011;7282;49.204;10.652;2023-03-14T02:18:14;1.27;;;1.17;;
14394;SDS011;7282;49.204;10.652;2023-03-14T02:20:45;1.50;;;1.40;;
14394;SDS011;7282;49.204;10.652;2023-03-14T02:23:11;1.43;;;1.33;;
14394;SDS011;7282;49.204;10.652;2023-03-14T02:25:51;1.03;;;1.03;;
14394;SDS011;7282;49.204;10.652;2023-03-14T02:28:07;1.07;;;1.07;;
14394;SDS011;7282;49.204;10.652;2023-03-14T02:30:34;1.60;;;1.30;;
14394;SDS011;7282;49.204;10.652;2023-03-14T02:33:11;1.40;;;1.30;;
14394;SDS011;7282;49.204;10.652;2023-03-14T02:35:32;1.27;;;1.10;;
14394;SDS011;7282;49.204;10.652;2023-03-14T02:40:44;1.63;;;1.07;;
14394;SDS011;7282;49.204;10.652;2023-03-14T02:43:11;1.00;;;1.00;;
14394;SDS011;7282;49.204;10.652;2023-03-14T02:45:41;1.10;;;1.00;;
14394;SDS011;7282;49.204;10.652;2023-03-14T02:48:10;1.30;;;1.20;;
14394;SDS011;7282;49.204;10.652;2023-03-14T02:50:36;1.10;;;1.00;;
14394;SDS011;7282;49.204;10.652;2023-03-14T02:53:03;1.70;;;1.00;;
14394;SDS011;7282;49.204;10.652;2023-03-14T02:55:30;1.00;;;1.00;;
14394;SDS011;7282;49.204;10.652;2023-03-14T02:57:57;0.90;;;0.90;;
14394;SDS011;7282;49.204;10.652;2023-03-14T03:00:24;1.03;;;0.90;;
14394;SDS011;7282;49.204;10.652;2023-03-14T03:02:50;1.10;;;1.10;;
14394;SDS011;7282;49.204;10.652;2023-03-14T03:05:17;1.40;;;1.30;;
14394;SDS011;7282;49.204;10.652;2023-03-14T03:07:44;1.70;;;1.30;;
14394;SDS011;7282;49.204;10.652;2023-03-14T03:10:11;2.27;;;1.37;;
14394;SDS011;7282;49.204;10.652;2023-03-14T03:12:37;1.30;;;1.10;;
14394;SDS011;7282;49.204;10.652;2023-03-14T03:15:04;1.10;;;1.00;;
14394;SDS011;7282;49.204;10.652;2023-03-14T03:17:31;1.20;;;1.10;;
14394;SDS011;7282;49.204;10.652;2023-03-14T03:19:58;1.10;;;1.10;;
14394;SDS011;7282;49.204;10.652;2023-03-14T03:22:24;1.10;;;0.90;;
14394;SDS011;7282;49.204;10.652;2023-03-14T03:24:51;0.90;;;0.90;;
14394;SDS011;7282;49.204;10.652;2023-03-14T03:27:18;1.93;;;1.30;;
14394;SDS011;7282;49.204;10.652;2023-03-14T03:29:44;0.90;;;0.90;;
14394;SDS011;7282;49.204;10.652;2023-03-14T03:32:11;0.80;;;0.80;;
14394;SDS011;7282;49.204;10.652;2023-03-14T03:34:38;1.20;;;1.10;;
14394;SDS011;7282;49.204;10.652;2023-03-14T03:37:04;1.00;;;1.00;;
14394;SDS011;7282;49.204;10.652;2023-03-14T03:39:31;1.37;;;1.27;;
14394;SDS011;7282;49.204;10.652;2023-03-14T03:41:58;1.00;;;1.00;;
14394;SDS011;7282;49.204;10.652;2023-03-14T03:44:24;1.20;;;1.10;;
14394;SDS011;7282;49.204;10.652;2023-03-14T03:46:54;1.30;;;1.20;;
14394;SDS011;7282;49.204;10.652;2023-03-14T03:49:21;1.00;;;1.00;;
14394;SDS011;7282;49.204;10.652;2023-03-14T03:51:48;1.23;;;1.10;;
14394;SDS011;7282;49.204;10.652;2023-03-14T03:54:15;1.20;;;1.10;;
14394;SDS011;7282;49.204;10.652;2023-03-14T03:56:41;1.10;;;1.10;;
14394;SDS011;7282;49.204;10.652;2023-03-14T03:59:08;2.50;;;1.20;;
14394;SDS011;7282;49.204;10.652;2023-03-14T04:01:35;1.00;;;1.00;;
14394;SDS011;7282;49.204;10.652;2023-03-14T04:04:01;1.30;;;1.20;;
14394;SDS011;7282;49.204;10.652;2023-03-14T04:06:28;0.93;;;0.93;;
14394;SDS011;7282;49.204;10.652;2023-03-14T04:08:55;1.00;;;1.00;;
14394;SDS011;7282;49.204;10.652;2023-03-14T04:11:21;2.37;;;1.13;;
14394;SDS011;7282;49.204;10.652;2023-03-14T04:13:48;1.00;;;1.00;;
14394;SDS011;7282;49.204;10.652;2023-03-14T04:16:21;1.30;;;1.20;;
14394;SDS011;7282;49.204;10.652;2023-03-14T04:18:43;1.70;;;1.10;;
14394;SDS011;7282;49.204;10.652;2023-03-14T04:21:10;1.03;;;0.97;;
14394;SDS011;7282;49.204;10.652;2023-03-14T04:23:37;1.03;;;1.00;;
14394;SDS011;7282;49.204;10.652;2023-03-14T04:26:04;1.03;;;1.00;;
14394;SDS011;7282;49.204;10.652;2023-03-14T04:28:30;1.03;;;1.03;;
14394;SDS011;7282;49.204;10.652;2023-03-14T04:30:57;1.00;;;1.00;;
14394;SDS011;7282;49.204;10.652;2023-03-14T04:33:24;1.40;;;0.90;;
14394;SDS011;7282;49.204;10.652;2023-03-14T04:35:53;0.80;;;0.80;;
14394;SDS011;7282;49.204;10.652;2023-03-14T04:38:19;0.70;;;0.70;;
14394;SDS011;7282;49.204;10.652;2023-03-14T04:40:46;1.10;;;0.80;;
14394;SDS011;7282;49.204;10.652;2023-03-14T04:43:13;0.80;;;0.80;;
14394;SDS011;7282;49.204;10.652;2023-03-14T04:45:42;0.90;;;0.90;;
14394;SDS011;7282;49.204;10.652;2023-03-14T04:48:09;1.53;;;0.80;;
14394;SDS011;7282;49.204;10.652;2023-03-14T04:50:36;1.00;;;1.00;;
14394;SDS011;7282;49.204;10.652;2023-03-14T04:53:02;1.20;;;1.07;;
14394;SDS011;7282;49.204;10.652;2023-03-14T04:55:29;1.00;;;1.00;;
14394;SDS011;7282;49.204;10.652;2023-03-14T04:57:56;1.30;;;1.20;;
14394;SDS011;7282;49.204;10.652;2023-03-14T05:00:22;1.43;;;1.10;;
14394;SDS011;7282;49.204;10.652;2023-03-14T05:02:49;1.33;;;1.20;;
14394;SDS011;7282;49.204;10.652;2023-03-14T05:05:16;1.30;;;1.20;;
14394;SDS011;7282;49.204;10.652;2023-03-14T05:07:43;1.13;;;1.13;;
14394;SDS011;7282;49.204;10.652;2023-03-14T05:10:10;1.27;;;1.13;;
14394;SDS011;7282;49.204;10.652;2023-03-14T05:12:36;3.00;;;2.00;;
14394;SDS011;7282;49.204;10.652;2023-03-14T05:15:03;2.27;;;1.30;;
14394;SDS011;7282;49.204;10.652;2023-03-14T05:17:32;1.93;;;1.70;;
14394;SDS011;7282;49.204;10.652;2023-03-14T05:19:58;1.93;;;1.73;;
14394;SDS011;7282;49.204;10.652;2023-03-14T05:22:25;2.00;;;1.90;;
14394;SDS011;7282;49.204;10.652;2023-03-14T05:24:52;2.20;;;1.73;;
14394;SDS011;7282;49.204;10.652;2023-03-14T05:27:21;3.20;;;1.90;;
14394;SDS011;7282;49.204;10.652;2023-03-14T05:29:47;2.67;;;2.40;;
14394;SDS011;7282;49.204;10.652;2023-03-14T05:32:14;2.30;;;1.80;;
14394;SDS011;7282;49.204;10.652;2023-03-14T05:34:41;3.27;;;2.40;;
14394;SDS011;7282;49.204;10.652;2023-03-14T05:37:07;2.70;;;2.20;;
14394;SDS011;7282;49.204;10.652;2023-03-14T05:39:34;2.73;;;2.27;;
14394;SDS011;7282;49.204;10.652;2023-03-14T05:42:01;2.43;;;2.20;;
14394;SDS011;7282;49.204;10.652;2023-03-14T05:44:27;2.70;;;2.50;;
14394;SDS011;7282;49.204;10.652;2023-03-14T05:46:54;3.37;;;2.30;;
14394;SDS011;7282;49.204;10.652;2023-03-14T05:49:21;2.27;;;2.07;;
14394;SDS011;7282;49.204;10.652;2023-03-14T05:51:47;1.50;;;1.40;;
14394;SDS011;7282;49.204;10.652;2023-03-14T05:54:14;2.33;;;1.60;;
14394;SDS011;7282;49.204;10.652;2023-03-14T05:56:41;2.00;;;1.67;;
14394;SDS011;7282;49.204;10.652;2023-03-14T05:59:07;2.10;;;1.70;;
14394;SDS011;7282;49.204;10.652;2023-03-14T06:01:35;1.60;;;1.50;;
14394;SDS011;7282;49.204;10.652;2023-03-14T06:04:01;1.90;;;1.60;;
14394;SDS011;7282;49.204;10.652;2023-03-14T06:06:28;2.20;;;1.80;;
14394;SDS011;7282;49.204;10.652;2023-03-14T06:08:55;2.67;;;2.10;;
14394;SDS011;7282;49.204;10.652;2023-03-14T06:11:21;2.00;;;1.87;;
14394;SDS011;7282;49.204;10.652;2023-03-14T06:13:48;2.17;;;1.97;;
14394;SDS011;7282;49.204;10.652;2023-03-14T06:16:15;4.93;;;2.77;;
14394;SDS011;7282;49.204;10.652;2023-03-14T06:18:42;4.23;;;2.53;;
14394;SDS011;7282;49.204;10.652;2023-03-14T06:21:08;3.50;;;2.60;;
14394;SDS011;7282;49.204;10.652;2023-03-14T06:23:35;3.63;;;2.30;;
14394;SDS011;7282;49.204;10.652;2023-03-14T06:26:02;5.37;;;2.33;;
14394;SDS011;7282;49.204;10.652;2023-03-14T06:28:28;2.53;;;2.30;;
14394;SDS011;7282;49.204;10.652;2023-03-14T06:30:55;2.10;;;2.00;;
14394;SDS011;7282;49.204;10.652;2023-03-14T06:33:22;2.50;;;2.30;;
14394;SDS011;7282;49.204;10.652;2023-03-14T06:35:48;2.40;;;2.20;;
14394;SDS011;7282;49.204;10.652;2023-03-14T06:38:15;3.20;;;2.10;;
14394;SDS011;7282;49.204;10.652;2023-03-14T06:40:42;2.10;;;1.90;;
14394;SDS011;7282;49.204;10.652;2023-03-14T06:43:09;3.10;;;2.50;;
14394;SDS011;7282;49.204;10.652;2023-03-14T06:45:35;3.07;;;2.77;;
14394;SDS011;7282;49.204;10.652;2023-03-14T06:48:02;3.07;;;2.33;;
14394;SDS011;7282;49.204;10.652;2023-03-14T06:50:29;3.47;;;2.53;;
14394;SDS011;7282;49.204;10.652;2023-03-14T06:52:56;4.83;;;2.53;;
14394;SDS011;7282;49.204;10.652;2023-03-14T06:55:22;2.60;;;2.40;;
14394;SDS011;7282;49.204;10.652;2023-03-14T06:57:49;3.07;;;2.63;;
14394;SDS011;7282;49.204;10.652;2023-03-14T07:00:16;3.13;;;2.60;;
14394;SDS011;7282;49.204;10.652;2023-03-14T07:02:43;3.30;;;3.00;;
14394;SDS011;7282;49.204;10.652;2023-03-14T07:05:09;3.50;;;3.20;;
14394;SDS011;7282;49.204;10.652;2023-03-14T07:07:39;3.20;;;2.90;;
14394;SDS011;7282;49.204;10.652;2023-03-14T07:10:06;4.90;;;2.87;;
14394;SDS011;7282;49.204;10.652;2023-03-14T07:12:34;3.30;;;3.03;;
14394;SDS011;7282;49.204;10.652;2023-03-14T07:15:01;4.13;;;2.83;;
14394;SDS011;7282;49.204;10.652;2023-03-14T07:17:28;3.33;;;3.10;;
14394;SDS011;7282;49.204;10.652;2023-03-14T07:19:55;3.80;;;3.50;;
14394;SDS011;7282;49.204;10.652;2023-03-14T07:22:21;4.10;;;3.60;;
14394;SDS011;7282;49.204;10.652;2023-03-14T07:24:48;4.20;;;3.73;;
14394;SDS011;7282;49.204;10.652;2023-03-14T07:27:15;4.03;;;3.63;;
14394;SDS011;7282;49.204;10.652;2023-03-14T07:29:41;4.40;;;4.00;;
14394;SDS011;7282;49.204;10.652;2023-03-14T07:32:08;3.97;;;3.30;;
14394;SDS011;7282;49.204;10.652;2023-03-14T07:34:35;4.03;;;3.43;;
14394;SDS011;7282;49.204;10.652;2023-03-14T07:37:02;4.10;;;3.07;;
14394;SDS011;7282;49.204;10.652;2023-03-14T07:39:29;3.37;;;3.07;;
14394;SDS011;7282;49.204;10.652;2023-03-14T07:41:56;5.43;;;2.87;;
14394;SDS011;7282;49.204;10.652;2023-03-14T07:44:23;2.70;;;2.50;;
14394;SDS011;7282;49.204;10.652;2023-03-14T07:46:49;3.23;;;2.60;;
14394;SDS011;7282;49.204;10.652;2023-03-14T07:49:16;3.40;;;2.33;;
14394;SDS011;7282;49.204;10.652;2023-03-14T07:51:43;4.90;;;2.87;;
14394;SDS011;7282;49.204;10.652;2023-03-14T07:54:10;3.33;;;2.33;;
14394;SDS011;7282;49.204;10.652;2023-03-14T07:56:36;3.40;;;2.37;;
14394;SDS011;7282;49.204;10.652;2023-03-14T07:59:03;3.30;;;2.33;;
14394;SDS011;7282;49.204;10.652;2023-03-14T08:01:30;2.20;;;2.00;;
14394;SDS011;7282;49.204;10.652;2023-03-14T08:03:57;6.00;;;2.60;;
14394;SDS011;7282;49.204;10.652;2023-03-14T08:06:23;5.30;;;2.33;;
14394;SDS011;7282;49.204;10.652;2023-03-14T08:08:50;3.40;;;2.00;;
14394;SDS011;7282;49.204;10.652;2023-03-14T08:11:17;4.30;;;2.27;;
14394;SDS011;7282;49.204;10.652;2023-03-14T08:13:43;3.07;;;1.70;;
14394;SDS011;7282;49.204;10.652;2023-03-14T08:16:12;2.23;;;1.40;;
14394;SDS011;7282;49.204;10.652;2023-03-14T08:18:39;2.63;;;1.70;;
14394;SDS011;7282;49.204;10.652;2023-03-14T08:21:05;3.90;;;1.47;;
14394;SDS011;7282;49.204;10.652;2023-03-14T08:26:11;4.13;;;2.70;;
14394;SDS011;7282;49.204;10.652;2023-03-14T08:28:38;3.50;;;2.27;;
14394;SDS011;7282;49.204;10.652;2023-03-14T08:31:04;1.67;;;1.57;;
14394;SDS011;7282;49.204;10.652;2023-03-14T08:33:31;3.13;;;1.63;;
14394;SDS011;7282;49.204;10.652;2023-03-14T08:35:59;3.73;;;1.67;;
14394;SDS011;7282;49.204;10.652;2023-03-14T08:38:26;3.20;;;1.67;;
14394;SDS011;7282;49.204;10.652;2023-03-14T08:41:01;1.90;;;1.30;;
14394;SDS011;7282;49.204;10.652;2023-03-14T08:43:24;3.67;;;1.70;;
14394;SDS011;7282;49.204;10.652;2023-03-14T08:45:51;1.80;;;1.50;;
14394;SDS011;7282;49.204;10.652;2023-03-14T08:48:18;2.63;;;1.27;;
14394;SDS011;7282;49.204;10.652;2023-03-14T08:50:45;1.40;;;1.30;;
14394;SDS011;7282;49.204;10.652;2023-03-14T08:53:12;1.43;;;1.33;;
14394;SDS011;7282;49.204;10.652;2023-03-14T08:55:39;1.90;;;1.00;;
14394;SDS011;7282;49.204;10.652;2023-03-14T08:58:05;3.40;;;1.20;;
14394;SDS011;7282;49.204;10.652;2023-03-14T09:00:32;3.23;;;1.40;;
14394;SDS011;7282;49.204;10.652;2023-03-14T09:02:59;2.70;;;1.33;;
14394;SDS011;7282;49.204;10.652;2023-03-14T09:05:25;2.40;;;1.63;;
14394;SDS011;7282;49.204;10.652;2023-03-14T09:07:52;5.33;;;1.80;;
14394;SDS011;7282;49.204;10.652;2023-03-14T09:10:19;1.97;;;1.57;;
14394;SDS011;7282;49.204;10.652;2023-03-14T09:12:46;3.27;;;1.70;;
14394;SDS011;7282;49.204;10.652;2023-03-14T09:15:12;2.67;;;1.67;;
14394;SDS011;7282;49.204;10.652;2023-03-14T09:17:39;2.60;;;1.50;;
14394;SDS011;7282;49.204;10.652;2023-03-14T09:20:06;3.10;;;1.30;;
14394;SDS011;7282;49.204;10.652;2023-03-14T09:22:33;5.53;;;1.90;;
14394;SDS011;7282;49.204;10.652;2023-03-14T09:25:02;3.53;;;1.50;;
14394;SDS011;7282;49.204;10.652;2023-03-14T09:27:29;2.47;;;1.83;;
14394;SDS011;7282;49.204;10.652;2023-03-14T09:29:56;2.67;;;1.53;;
14394;SDS011;7282;49.204;10.652;2023-03-14T09:32:22;2.70;;;1.47;;
14394;SDS011;7282;49.204;10.652;2023-03-14T09:34:49;2.93;;;2.10;;
14394;SDS011;7282;49.204;10.652;2023-03-14T09:37:16;3.37;;;1.70;;
14394;SDS011;7282;49.204;10.652;2023-03-14T09:39:43;5.27;;;2.17;;
14394;SDS011;7282;49.204;10.652;2023-03-14T09:42:13;4.87;;;1.57;;
14394;SDS011;7282;49.204;10.652;2023-03-14T09:44:39;1.57;;;1.37;;
14394;SDS011;7282;49.204;10.652;2023-03-14T09:47:07;1.90;;;1.17;;
14394;SDS011;7282;49.204;10.652;2023-03-14T09:49:41;2.97;;;1.40;;
14394;SDS011;7282;49.204;10.652;2023-03-14T09:52:13;4.40;;;1.40;;
14394;SDS011;7282;49.204;10.652;2023-03-14T09:54:44;2.57;;;1.23;;
14394;SDS011;7282;49.204;10.652;2023-03-14T09:57:12;4.13;;;1.10;;
14394;SDS011;7282;49.204;10.652;2023-03-14T09:59:40;2.13;;;0.87;;
14394;SDS011;7282;49.204;10.652;2023-03-14T10:02:15;2.30;;;1.43;;
14394;SDS011;7282;49.204;10.652;2023-03-14T10:04:43;2.90;;;1.30;;
14394;SDS011;7282;49.204;10.652;2023-03-14T10:07:14;1.67;;;0.77;;
14394;SDS011;7282;49.204;10.652;2023-03-14T10:09:47;3.80;;;1.37;;
14394;SDS011;7282;49.204;10.652;2023-03-14T10:12:10;2.83;;;1.17;;
14394;SDS011;7282;49.204;10.652;2023-03-14T10:14:44;2.27;;;1.20;;
14394;SDS011;7282;49.204;10.652;2023-03-14T10:17:12;3.67;;;1.10;;
14394;SDS011;7282;49.204;10.652;2023-03-14T10:19:36;3.13;;;1.10;;
14394;SDS011;7282;49.204;10.652;2023-03-14T10:22:04;3.13;;;1.40;;
14394;SDS011;7282;49.204;10.652;2023-03-14T10:24:36;2.40;;;0.80;;
14394;SDS011;7282;49.204;10.652;2023-03-14T10:27:01;3.00;;;1.43;;
14394;SDS011;7282;49.204;10.652;2023-03-14T10:29:31;1.67;;;1.10;;
14394;SDS011;7282;49.204;10.652;2023-03-14T10:32:02;1.63;;;1.00;;
14394;SDS011;7282;49.204;10.652;2023-03-14T10:34:35;3.53;;;1.50;;
14394;SDS011;7282;49.204;10.652;2023-03-14T10:36:59;6.03;;;1.80;;
14394;SDS011;7282;49.204;10.652;2023-03-14T10:39:32;2.63;;;1.90;;
14394;SDS011;7282;49.204;10.652;2023-03-14T10:42:06;6.17;;;2.00;;
14394;SDS011;7282;49.204;10.652;2023-03-14T10:44:29;1.30;;;0.90;;
14394;SDS011;7282;49.204;10.652;2023-03-14T10:46:58;1.13;;;0.87;;
14394;SDS011;7282;49.204;10.652;2023-03-14T10:49:29;1.40;;;1.10;;
14394;SDS011;7282;49.204;10.652;2023-03-14T10:51:57;1.03;;;0.83;;
14394;SDS011;7282;49.204;10.652;2023-03-14T10:54:24;1.73;;;1.27;;
14394;SDS011;7282;49.204;10.652;2023-03-14T10:56:57;1.53;;;0.70;;
14394;SDS011;7282;49.204;10.652;2023-03-14T10:59:24;1.40;;;1.30;;
14394;SDS011;7282;49.204;10.652;2023-03-14T11:04:43;1.67;;;0.83;;
14394;SDS011;7282;49.204;10.652;2023-03-14T11:07:12;2.33;;;0.83;;
14394;SDS011;7282;49.204;10.652;2023-03-14T11:09:40;2.27;;;1.00;;
14394;SDS011;7282;49.204;10.652;2023-03-14T11:14:52;1.57;;;0.70;;
14394;SDS011;7282;49.204;10.652;2023-03-14T11:17:35;3.87;;;0.90;;
14394;SDS011;7282;49.204;10.652;2023-03-14T11:33:13;1.50;;;0.90;;
14394;SDS011;7282;49.204;10.652;2023-03-14T11:35:41;1.20;;;0.70;;
14394;SDS011;7282;49.204;10.652;2023-03-14T11:38:12;0.70;;;0.70;;
14394;SDS011;7282;49.204;10.652;2023-03-14T11:40:38;1.00;;;0.90;;
14394;SDS011;7282;49.204;10.652;2023-03-14T11:43:13;0.97;;;0.83;;
14394;SDS011;7282;49.204;10.652;2023-03-14T11:45:41;2.43;;;1.00;;
14394;SDS011;7282;49.204;10.652;2023-03-14T11:50:39;1.00;;;0.60;;
14394;SDS011;7282;49.204;10.652;2023-03-14T11:53:09;1.37;;;0.77;;
14394;SDS011;7282;49.204;10.652;2023-03-14T11:55:37;1.50;;;0.87;;
14394;SDS011;7282;49.204;10.652;2023-03-14T11:58:15;1.10;;;1.00;;
14394;SDS011;7282;49.204;10.652;2023-03-14T12:00:42;1.60;;;1.10;;
14394;SDS011;7282;49.204;10.652;2023-03-14T12:03:14;1.43;;;1.20;;
14394;SDS011;7282;49.204;10.652;2023-03-14T12:05:43;2.43;;;1.20;;
14394;SDS011;7282;49.204;10.652;2023-03-14T12:08:17;0.93;;;0.87;;
14394;SDS011;7282;49.204;10.652;2023-03-14T12:10:39;1.07;;;0.87;;
14394;SDS011;7282;49.204;10.652;2023-03-14T12:13:09;2.27;;;0.90;;
14394;SDS011;7282;49.204;10.652;2023-03-14T12:15:46;0.70;;;0.70;;
14394;SDS011;7282;49.204;10.652;2023-03-14T12:18:12;0.60;;;0.60;;
14394;SDS011;7282;49.204;10.652;2023-03-14T12:20:33;2.10;;;0.87;;
14394;SDS011;7282;49.204;10.652;2023-03-14T12:23:02;5.03;;;1.00;;
14394;SDS011;7282;49.204;10.652;2023-03-14T12:25:30;0.43;;;0.37;;
14394;SDS011;7282;49.204;10.652;2023-03-14T12:30:38;0.80;;;0.80;;
14394;SDS011;7282;49.204;10.652;2023-03-14T12:35:42;0.87;;;0.60;;
14394;SDS011;7282;49.204;10.652;2023-03-14T12:38:13;0.60;;;0.57;;
14394;SDS011;7282;49.204;10.652;2023-03-14T12:41:15;1.40;;;0.70;;
14394;SDS011;7282;49.204;10.652;2023-03-14T12:43:25;0.70;;;0.70;;
14394;SDS011;7282;49.204;10.652;2023-03-14T12:46:06;1.90;;;0.90;;
14394;SDS011;7282;49.204;10.652;2023-03-14T12:48:26;0.60;;;0.60;;
14394;SDS011;7282;49.204;10.652;2023-03-14T12:50:56;0.90;;;0.80;;
14394;SDS011;7282;49.204;10.652;2023-03-14T12:56:02;1.23;;;0.80;;
14394;SDS011;7282;49.204;10.652;2023-03-14T12:58:31;1.50;;;0.90;;
14394;SDS011;7282;49.204;10.652;2023-03-14T13:01:04;0.73;;;0.73;;
14394;SDS011;7282;49.204;10.652;2023-03-14T13:03:38;1.10;;;1.07;;
14394;SDS011;7282;49.204;10.652;2023-03-14T13:06:03;0.80;;;0.80;;
14394;SDS011;7282;49.204;10.652;2023-03-14T13:08:32;0.67;;;0.67;;
14394;SDS011;7282;49.204;10.652;2023-03-14T13:10:59;1.33;;;1.20;;
14394;SDS011;7282;49.204;10.652;2023-03-14T13:13:27;2.10;;;0.80;;
14394;SDS011;7282;49.204;10.652;2023-03-14T13:15:55;1.47;;;0.93;;
14394;SDS011;7282;49.204;10.652;2023-03-14T13:20:58;1.43;;;0.93;;
14394;SDS011;7282;49.204;10.652;2023-03-14T13:23:27;3.17;;;1.00;;
14394;SDS011;7282;49.204;10.652;2023-03-14T13:25:55;1.20;;;0.90;;
14394;SDS011;7282;49.204;10.652;2023-03-14T13:28:22;2.00;;;0.73;;
14394;SDS011;7282;49.204;10.652;2023-03-14T13:30:50;0.73;;;0.73;;
14394;SDS011;7282;49.204;10.652;2023-03-14T13:33:19;3.27;;;1.50;;
14394;SDS011;7282;49.204;10.652;2023-03-14T13:35:49;1.83;;;1.20;;
14394;SDS011;7282;49.204;10.652;2023-03-14T13:38:22;1.93;;;0.93;;
14394;SDS011;7282;49.204;10.652;2023-03-14T13:40:46;1.23;;;1.00;;
14394;SDS011;7282;49.204;10.652;2023-03-14T13:43:14;2.50;;;1.30;;
14394;SDS011;7282;49.204;10.652;2023-03-14T13:45:46;1.37;;;1.00;;
14394;SDS011;7282;49.204;10.652;2023-03-14T13:48:10;2.10;;;1.30;;
14394;SDS011;7282;49.204;10.652;2023-03-14T13:50:38;0.90;;;0.90;;
14394;SDS011;7282;49.204;10.652;2023-03-14T13:53:09;0.80;;;0.80;;
14394;SDS011;7282;49.204;10.652;2023-03-14T13:55:33;1.37;;;0.90;;
14394;SDS011;7282;49.204;10.652;2023-03-14T13:58:00;1.33;;;1.10;;
14394;SDS011;7282;49.204;10.652;2023-03-14T14:00:27;1.17;;;1.07;;
14394;SDS011;7282;49.204;10.652;2023-03-14T14:02:54;1.80;;;1.50;;
14394;SDS011;7282;49.204;10.652;2023-03-14T14:05:21;1.30;;;1.20;;
14394;SDS011;7282;49.204;10.652;2023-03-14T14:07:48;1.30;;;1.20;;
14394;SDS011;7282;49.204;10.652;2023-03-14T14:10:15;1.37;;;1.30;;
14394;SDS011;7282;49.204;10.652;2023-03-14T14:12:43;2.03;;;1.50;;
14394;SDS011;7282;49.204;10.652;2023-03-14T14:15:13;2.17;;;1.70;;
14394;SDS011;7282;49.204;10.652;2023-03-14T14:17:48;2.00;;;1.90;;
14394;SDS011;7282;49.204;10.652;2023-03-14T14:20:34;1.90;;;1.80;;
14394;SDS011;7282;49.204;10.652;2023-03-14T14:23:02;2.30;;;2.10;;
14394;SDS011;7282;49.204;10.652;2023-03-14T14:25:29;2.20;;;2.10;;
14394;SDS011;7282;49.204;10.652;2023-03-14T14:27:56;2.10;;;2.00;;
14394;SDS011;7282;49.204;10.652;2023-03-14T14:30:25;2.30;;;1.83;;
14394;SDS011;7282;49.204;10.652;2023-03-14T14:32:53;2.33;;;2.00;;
14394;SDS011;7282;49.204;10.652;2023-03-14T14:35:30;2.10;;;2.00;;
14394;SDS011;7282;49.204;10.652;2023-03-14T14:37:50;2.40;;;2.20;;
14394;SDS011;7282;49.204;10.652;2023-03-14T14:40:21;2.00;;;1.90;;
14394;SDS011;7282;49.204;10.652;2023-03-14T14:42:45;2.20;;;2.07;;
14394;SDS011;7282;49.204;10.652;2023-03-14T14:45:23;2.63;;;2.43;;
14394;SDS011;7282;49.204;10.652;2023-03-14T14:48:02;2.97;;;2.77;;
14394;SDS011;7282;49.204;10.652;2023-03-14T14:50:34;2.97;;;2.77;;
14394;SDS011;7282;49.204;10.652;2023-03-14T14:53:03;2.97;;;2.70;;
14394;SDS011;7282;49.204;10.652;2023-03-14T14:55:39;3.40;;;2.50;;
14394;SDS011;7282;49.204;10.652;2023-03-14T15:00:39;2.77;;;2.30;;
14394;SDS011;7282;49.204;10.652;2023-03-14T15:03:10;2.63;;;2.27;;
14394;SDS011;7282;49.204;10.652;2023-03-14T15:05:34;2.90;;;2.27;;
14394;SDS011;7282;49.204;10.652;2023-03-14T15:08:02;1.80;;;1.70;;
14394;SDS011;7282;49.204;10.652;2023-03-14T15:10:29;2.80;;;1.80;;
14394;SDS011;7282;49.204;10.652;2023-03-14T15:12:56;2.10;;;1.90;;
14394;SDS011;7282;49.204;10.652;2023-03-14T15:15:22;2.40;;;1.80;;
14394;SDS011;7282;49.204;10.652;2023-03-14T15:17:49;2.17;;;1.90;;
14394;SDS011;7282;49.204;10.652;2023-03-14T15:20:16;3.07;;;1.60;;
14394;SDS011;7282;49.204;10.652;2023-03-14T15:22:44;3.87;;;2.57;;
14394;SDS011;7282;49.204;10.652;2023-03-14T15:25:11;1.63;;;1.50;;
14394;SDS011;7282;49.204;10.652;2023-03-14T15:27:38;3.63;;;1.70;;
14394;SDS011;7282;49.204;10.652;2023-03-14T15:30:09;3.40;;;1.87;;
14394;SDS011;7282;49.204;10.652;2023-03-14T15:32:36;1.43;;;1.33;;